Hebei Shijiazhuang — VRIS2 — position and weather

sailwx.info

Track history (hours):
 
Tides and Currents Weather Stations Pressure Air Temp Water Temp Dewpoint Dewpoint Depression Visibility Wind Speed Wind Dir Waves Ship Positions

Hebei Shijiazhuang

Last reported at 2015-Mar-23 04:21 UTC. Time now 2015-Apr-01 13:12 UTC.
Position N 22°26' E 119°48'.
Warning: this ship's position is 9 days out of date.

Length 235 m.

Type: Cargo ship. MMSI: 477899000.

Date/timePositionNaut miles runAvg speedWind from/ knotsBaromVisibWave heightAir tempDewpointWater temp
2015-Mar-23 04:21N 22°26' E 119°48'8 7.3
2015-Mar-23 03:16N 22°33' E 119°51'6 8.0
2015-Mar-23 02:34N 22°37' E 119°55'8 8.3
2015-Mar-23 01:33N 22°43' E 120°02'8 8.0
2015-Mar-23 00:32N 22°49' E 120°08'2 0.0
2015-Mar-21 00:32N 22°50' E 120°10'9 9.1
2015-Mar-20 23:33N 22°41' E 120°12'1 1.2
2015-Mar-20 22:33N 22°40' E 120°12'0 0.2
2015-Mar-20 21:33N 22°40' E 120°12'0 0.0
2015-Mar-20 20:33N 22°40' E 120°12'0 0.1
2015-Mar-20 19:33N 22°40' E 120°12'0 0.0
2015-Mar-20 18:33N 22°40' E 120°12'0 0.0
2015-Mar-20 17:33N 22°40' E 120°12'0 0.0
2015-Mar-20 16:33N 22°40' E 120°12'0 0.0
2015-Mar-20 15:33N 22°40' E 120°12'0 0.0
2015-Mar-20 14:27N 22°40' E 120°12'0 0.1
2015-Mar-20 13:33N 22°40' E 120°12'0 0.1
2015-Mar-20 12:33N 22°40' E 120°12'0 0.1
2015-Mar-20 11:33N 22°40' E 120°12'0 0.0
2015-Mar-20 10:33N 22°40' E 120°12'0 0.1
2015-Mar-20 09:33N 22°40' E 120°12'0 0.1
2015-Mar-20 08:33N 22°40' E 120°12'0 0.1
2015-Mar-20 07:33N 22°40' E 120°12'0 0.0
2015-Mar-20 06:27N 22°40' E 120°12'0 0.1
2015-Mar-20 05:27N 22°40' E 120°12'0 0.0
2015-Mar-20 04:33N 22°40' E 120°12'0 0.0
2015-Mar-20 03:33N 22°40' E 120°12'0 0.1
2015-Mar-20 02:33N 22°40' E 120°12'0 0.0
2015-Mar-20 01:27N 22°40' E 120°12'0 0.1
2015-Mar-20 00:33N 22°40' E 120°12'0 0.1
2015-Mar-19 23:21N 22°40' E 120°12'0 0.1
2015-Mar-19 22:33N 22°40' E 120°12'0 0.1
2015-Mar-19 21:33N 22°40' E 120°12'0 0.2
2015-Mar-19 20:33N 22°40' E 120°12'0 0.1
2015-Mar-19 19:33N 22°40' E 120°12'0 0.0
2015-Mar-19 18:33N 22°40' E 120°12'0 0.1
2015-Mar-19 17:27N 22°40' E 120°12'0 0.0
2015-Mar-19 16:33N 22°40' E 120°12'0 0.0
2015-Mar-19 15:33N 22°40' E 120°12'0 0.0
2015-Mar-19 14:33N 22°40' E 120°12'0 0.0
2015-Mar-19 13:33N 22°40' E 120°12'0 0.1
2015-Mar-19 12:27N 22°40' E 120°12'0 0.1
2015-Mar-19 11:33N 22°40' E 120°12'0 0.1
2015-Mar-19 10:33N 22°40' E 120°12'0 0.0
2015-Mar-19 09:33N 22°40' E 120°12'0 0.0
2015-Mar-19 08:33N 22°40' E 120°12'0 0.2
2015-Mar-19 07:33N 22°40' E 120°12'0 0.1
2015-Mar-19 06:33N 22°40' E 120°12'0 0.0
2015-Mar-19 05:33N 22°40' E 120°12'0 0.0
2015-Mar-19 04:33N 22°40' E 120°12'0 0.0
2015-Mar-19 03:27N 22°40' E 120°12'0 0.0
2015-Mar-19 02:33N 22°40' E 120°12'0 0.1
2015-Mar-19 01:33N 22°40' E 120°12'1 0.7
2015-Mar-19 00:33N 22°40' E 120°12'5 5.0
2015-Mar-18 23:33N 22°39' E 120°06'7 7.2
2015-Mar-18 22:33N 22°37' E 119°59'5 5.2
2015-Mar-18 21:33N 22°32' E 119°57'4 3.9
2015-Mar-18 20:33N 22°28' E 119°56'7 6.8
2015-Mar-18 19:33N 22°22' E 119°56'7 7.2
2015-Mar-18 18:33N 22°14' E 119°56'8 7.9
2015-Mar-18 17:33N 22°07' E 119°55'8 7.9
2015-Mar-18 16:30N 21°58' E 119°55'16 7.7
2015-Mar-18 14:29N 21°43' E 119°54'7 7.3
2015-Mar-18 13:33N 21°36' E 119°53'11 7.9
2015-Mar-18 12:07N 21°25' E 119°53'13 8.0
2015-Mar-18 10:33N 21°12' E 119°52'9 8.0
2015-Mar-18 09:28N 21°04' E 119°51'10 8.2
2015-Mar-18 08:12N 20°53' E 119°51'  
Track history (hours):
 
Tides and Currents Weather Stations Pressure Air Temp Water Temp Dewpoint Dewpoint Depression Visibility Wind Speed Wind Dir Waves Ship Positions

Hebei Shijiazhuang

Last reported at 2015-Mar-23 04:21 UTC. Time now 2015-Apr-01 13:12 UTC.
Position N 22°26' E 119°48'.
Warning: this ship's position is 9 days out of date.

Length 235 m.

Type: Cargo ship. MMSI: 477899000.

Date/timePositionNaut miles runAvg speedWind from/ knotsBaromVisibWave heightAir tempDewpointWater temp
2015-Mar-23 04:21N 22°26' E 119°48'8 7.3
2015-Mar-23 03:16N 22°33' E 119°51'6 8.0
2015-Mar-23 02:34N 22°37' E 119°55'8 8.3
2015-Mar-23 01:33N 22°43' E 120°02'8 8.0
2015-Mar-23 00:32N 22°49' E 120°08'2 0.0
2015-Mar-21 00:32N 22°50' E 120°10'9 9.1
2015-Mar-20 23:33N 22°41' E 120°12'1 1.2
2015-Mar-20 22:33N 22°40' E 120°12'0 0.2
2015-Mar-20 21:33N 22°40' E 120°12'0 0.0
2015-Mar-20 20:33N 22°40' E 120°12'0 0.1
2015-Mar-20 19:33N 22°40' E 120°12'0 0.0
2015-Mar-20 18:33N 22°40' E 120°12'0 0.0
2015-Mar-20 17:33N 22°40' E 120°12'0 0.0
2015-Mar-20 16:33N 22°40' E 120°12'0 0.0
2015-Mar-20 15:33N 22°40' E 120°12'0 0.0
2015-Mar-20 14:27N 22°40' E 120°12'0 0.1
2015-Mar-20 13:33N 22°40' E 120°12'0 0.1
2015-Mar-20 12:33N 22°40' E 120°12'0 0.1
2015-Mar-20 11:33N 22°40' E 120°12'0 0.0
2015-Mar-20 10:33N 22°40' E 120°12'0 0.1
2015-Mar-20 09:33N 22°40' E 120°12'0 0.1
2015-Mar-20 08:33N 22°40' E 120°12'0 0.1
2015-Mar-20 07:33N 22°40' E 120°12'0 0.0
2015-Mar-20 06:27N 22°40' E 120°12'0 0.1
2015-Mar-20 05:27N 22°40' E 120°12'0 0.0
2015-Mar-20 04:33N 22°40' E 120°12'0 0.0
2015-Mar-20 03:33N 22°40' E 120°12'0 0.1
2015-Mar-20 02:33N 22°40' E 120°12'0 0.0
2015-Mar-20 01:27N 22°40' E 120°12'0 0.1
2015-Mar-20 00:33N 22°40' E 120°12'0 0.1
2015-Mar-19 23:21N 22°40' E 120°12'0 0.1
2015-Mar-19 22:33N 22°40' E 120°12'0 0.1
2015-Mar-19 21:33N 22°40' E 120°12'0 0.2
2015-Mar-19 20:33N 22°40' E 120°12'0 0.1
2015-Mar-19 19:33N 22°40' E 120°12'0 0.0
2015-Mar-19 18:33N 22°40' E 120°12'0 0.1
2015-Mar-19 17:27N 22°40' E 120°12'0 0.0
2015-Mar-19 16:33N 22°40' E 120°12'0 0.0
2015-Mar-19 15:33N 22°40' E 120°12'0 0.0
2015-Mar-19 14:33N 22°40' E 120°12'0 0.0
2015-Mar-19 13:33N 22°40' E 120°12'0 0.1
2015-Mar-19 12:27N 22°40' E 120°12'0 0.1
2015-Mar-19 11:33N 22°40' E 120°12'0 0.1
2015-Mar-19 10:33N 22°40' E 120°12'0 0.0
2015-Mar-19 09:33N 22°40' E 120°12'0 0.0
2015-Mar-19 08:33N 22°40' E 120°12'0 0.2
2015-Mar-19 07:33N 22°40' E 120°12'0 0.1
2015-Mar-19 06:33N 22°40' E 120°12'0 0.0
2015-Mar-19 05:33N 22°40' E 120°12'0 0.0
2015-Mar-19 04:33N 22°40' E 120°12'0 0.0
2015-Mar-19 03:27N 22°40' E 120°12'0 0.0
2015-Mar-19 02:33N 22°40' E 120°12'0 0.1
2015-Mar-19 01:33N 22°40' E 120°12'1 0.7
2015-Mar-19 00:33N 22°40' E 120°12'5 5.0
2015-Mar-18 23:33N 22°39' E 120°06'7 7.2
2015-Mar-18 22:33N 22°37' E 119°59'5 5.2
2015-Mar-18 21:33N 22°32' E 119°57'4 3.9
2015-Mar-18 20:33N 22°28' E 119°56'7 6.8
2015-Mar-18 19:33N 22°22' E 119°56'7 7.2
2015-Mar-18 18:33N 22°14' E 119°56'8 7.9
2015-Mar-18 17:33N 22°07' E 119°55'8 7.9
2015-Mar-18 16:30N 21°58' E 119°55'16 7.7
2015-Mar-18 14:29N 21°43' E 119°54'7 7.3
2015-Mar-18 13:33N 21°36' E 119°53'11 7.9
2015-Mar-18 12:07N 21°25' E 119°53'13 8.0
2015-Mar-18 10:33N 21°12' E 119°52'9 8.0
2015-Mar-18 09:28N 21°04' E 119°51'10 8.2
2015-Mar-18 08:12N 20°53' E 119°51'  

Dump ship's entire track history